AUR50H EGJB-EGHI
Flight info
| Callsign | AUR50H |
|---|---|
| Flight time | 0h 29m |
| Altitude | 9000 |
| Route | ORTAC Q41 THRED |
| Aircraft | AT76/M-SDFGIRY/S |
Departure
| Time | 2026-05-04 05:56 |
|---|---|
| Airport | Guernsey Airport (EGJB) |
Arrival
| Time | 2026-05-04 06:25 |
|---|---|
| Airport | Southampton Airport (EGHI) |
| Time | Latitude | Longitude | Altitude | Speed | Heading |
|---|---|---|---|---|---|
| 2026-05-04 05:34 | 49.43253 | -2.59620 | 321 ft | 0 kts | 178° |
| 2026-05-04 05:48 | 49.43254 | -2.59620 | 325 ft | 2 kts | 178° |
| 2026-05-04 05:48 | 49.43279 | -2.59622 | 322 ft | 4 kts | 178° |
| 2026-05-04 05:48 | 49.43307 | -2.59623 | 325 ft | 4 kts | 178° |
| 2026-05-04 05:48 | 49.43334 | -2.59624 | 326 ft | 4 kts | 178° |
| 2026-05-04 05:49 | 49.43358 | -2.59625 | 326 ft | 2 kts | 178° |
| 2026-05-04 05:49 | 49.43359 | -2.59625 | 326 ft | 0 kts | 178° |
| 2026-05-04 05:52 | 49.43359 | -2.59624 | 326 ft | 0 kts | 169° |
| 2026-05-04 05:52 | 49.43357 | -2.59618 | 326 ft | 1 kts | 122° |
| 2026-05-04 05:52 | 49.43361 | -2.59576 | 327 ft | 6 kts | 81° |
| 2026-05-04 05:53 | 49.43365 | -2.59508 | 328 ft | 7 kts | 86° |
| 2026-05-04 05:54 | 49.43524 | -2.59238 | 329 ft | 2 kts | 266° |
| 2026-05-04 05:55 | 49.43524 | -2.59241 | 329 ft | 0 kts | 266° |
| 2026-05-04 05:55 | 49.43522 | -2.59321 | 332 ft | 33 kts | 268° |
| 2026-05-04 05:56 | 49.43502 | -2.60036 | 313 ft | 99 kts | 267° |
| 2026-05-04 05:56 | 49.43466 | -2.61279 | 559 ft | 122 kts | 268° |
| 2026-05-04 05:56 | 49.43410 | -2.62594 | 1121 ft | 124 kts | 265° |
| 2026-05-04 05:56 | 49.43339 | -2.63924 | 1749 ft | 126 kts | 265° |
| 2026-05-04 05:57 | 49.43290 | -2.65309 | 2028 ft | 141 kts | 265° |
| 2026-05-04 05:57 | 49.43239 | -2.66974 | 2098 ft | 168 kts | 265° |
| 2026-05-04 05:57 | 49.43182 | -2.68793 | 2523 ft | 170 kts | 268° |
| 2026-05-04 05:57 | 49.43586 | -2.70458 | 2885 ft | 175 kts | 315° |
| 2026-05-04 05:58 | 49.44719 | -2.71074 | 3296 ft | 180 kts | 4° |
| 2026-05-04 05:58 | 49.45845 | -2.70265 | 3708 ft | 183 kts | 37° |
| 2026-05-04 05:58 | 49.46862 | -2.69068 | 4134 ft | 185 kts | 38° |
| 2026-05-04 05:58 | 49.47866 | -2.67812 | 4547 ft | 188 kts | 40° |
| 2026-05-04 05:59 | 49.48865 | -2.66499 | 4957 ft | 190 kts | 41° |
| 2026-05-04 05:59 | 49.49875 | -2.65172 | 5369 ft | 192 kts | 41° |
| 2026-05-04 05:59 | 49.50903 | -2.63845 | 5778 ft | 194 kts | 40° |
| 2026-05-04 05:59 | 49.51945 | -2.62509 | 6178 ft | 196 kts | 40° |
| 2026-05-04 06:00 | 49.53000 | -2.61157 | 6561 ft | 198 kts | 41° |
| 2026-05-04 06:00 | 49.54063 | -2.59800 | 6949 ft | 199 kts | 41° |
| 2026-05-04 06:00 | 49.55131 | -2.58436 | 7337 ft | 200 kts | 41° |
| 2026-05-04 06:00 | 49.56203 | -2.57068 | 7719 ft | 201 kts | 41° |
| 2026-05-04 06:01 | 49.57266 | -2.55708 | 8098 ft | 201 kts | 41° |
| 2026-05-04 06:01 | 49.58346 | -2.54326 | 8476 ft | 202 kts | 41° |
| 2026-05-04 06:03 | 49.67222 | -2.42953 | 8988 ft | 266 kts | 41° |
| 2026-05-04 06:03 | 49.68650 | -2.41115 | 8989 ft | 269 kts | 41° |
| 2026-05-04 06:05 | 49.78926 | -2.27865 | 8992 ft | 277 kts | 41° |
| 2026-05-04 06:05 | 49.81887 | -2.24029 | 8987 ft | 278 kts | 41° |
| 2026-05-04 06:05 | 49.83370 | -2.22109 | 8989 ft | 278 kts | 41° |
| 2026-05-04 06:06 | 49.84852 | -2.20189 | 8988 ft | 278 kts | 41° |
| 2026-05-04 06:06 | 49.86335 | -2.18264 | 8988 ft | 278 kts | 41° |
| 2026-05-04 06:06 | 49.87819 | -2.16339 | 8988 ft | 278 kts | 41° |
| 2026-05-04 06:06 | 49.89299 | -2.14412 | 8987 ft | 278 kts | 41° |
| 2026-05-04 06:07 | 49.90764 | -2.12505 | 8987 ft | 278 kts | 41° |
| 2026-05-04 06:07 | 49.92246 | -2.10574 | 8987 ft | 278 kts | 41° |
| 2026-05-04 06:07 | 49.93728 | -2.08643 | 8979 ft | 278 kts | 41° |
| 2026-05-04 06:07 | 49.95210 | -2.06713 | 8979 ft | 278 kts | 41° |
| 2026-05-04 06:08 | 49.96691 | -2.04770 | 8980 ft | 279 kts | 41° |
| 2026-05-04 06:08 | 49.98176 | -2.02837 | 8980 ft | 279 kts | 41° |
| 2026-05-04 06:08 | 49.99666 | -2.00896 | 8980 ft | 279 kts | 41° |
| 2026-05-04 06:08 | 50.01303 | -1.99315 | 8979 ft | 278 kts | 25° |
| 2026-05-04 06:09 | 50.03092 | -1.98178 | 8980 ft | 278 kts | 21° |
| 2026-05-04 06:09 | 50.04896 | -1.97107 | 8980 ft | 278 kts | 21° |
| 2026-05-04 06:11 | 50.17404 | -1.88700 | 8976 ft | 280 kts | 24° |
| 2026-05-04 06:11 | 50.19191 | -1.87481 | 8977 ft | 281 kts | 24° |
| 2026-05-04 06:13 | 50.31713 | -1.78931 | 8981 ft | 280 kts | 24° |
| 2026-05-04 06:14 | 50.42425 | -1.71571 | 8979 ft | 280 kts | 24° |
| 2026-05-04 06:14 | 50.44180 | -1.70364 | 8980 ft | 279 kts | 23° |
| 2026-05-04 06:15 | 50.45978 | -1.69128 | 8977 ft | 278 kts | 24° |
| 2026-05-04 06:15 | 50.47750 | -1.67910 | 8979 ft | 278 kts | 24° |
| 2026-05-04 06:15 | 50.49523 | -1.66685 | 8979 ft | 278 kts | 24° |
| 2026-05-04 06:15 | 50.51293 | -1.65461 | 8977 ft | 278 kts | 24° |
| 2026-05-04 06:16 | 50.53068 | -1.64229 | 8981 ft | 279 kts | 24° |
| 2026-05-04 06:16 | 50.54845 | -1.62998 | 8980 ft | 280 kts | 24° |
| 2026-05-04 06:16 | 50.56626 | -1.61767 | 8979 ft | 280 kts | 24° |
| 2026-05-04 06:16 | 50.58410 | -1.60527 | 8980 ft | 280 kts | 24° |
| 2026-05-04 06:17 | 50.60193 | -1.59288 | 8789 ft | 280 kts | 24° |
| 2026-05-04 06:17 | 50.61945 | -1.58066 | 8434 ft | 278 kts | 24° |
| 2026-05-04 06:17 | 50.63705 | -1.56844 | 8066 ft | 275 kts | 24° |
| 2026-05-04 06:17 | 50.65470 | -1.55627 | 7699 ft | 271 kts | 24° |
| 2026-05-04 06:18 | 50.67153 | -1.54401 | 7332 ft | 269 kts | 26° |
| 2026-05-04 06:18 | 50.68813 | -1.53090 | 6934 ft | 263 kts | 27° |
| 2026-05-04 06:18 | 50.70353 | -1.51841 | 6538 ft | 235 kts | 27° |
| 2026-05-04 06:20 | 50.80085 | -1.44045 | 3608 ft | 224 kts | 26° |
| 2026-05-04 06:20 | 50.81035 | -1.43353 | 3311 ft | 222 kts | 21° |
| 2026-05-04 06:21 | 50.86760 | -1.40307 | 1675 ft | 195 kts | 18° |
| 2026-05-04 06:21 | 50.87979 | -1.39648 | 1407 ft | 174 kts | 19° |
| 2026-05-04 06:22 | 50.89054 | -1.39051 | 1201 ft | 156 kts | 19° |
| 2026-05-04 06:22 | 50.90028 | -1.38512 | 986 ft | 145 kts | 18° |
| 2026-05-04 06:25 | 50.95051 | -1.35668 | 36 ft | 16 kts | 200° |
| 2026-05-04 06:25 | 50.95031 | -1.35776 | 36 ft | 10 kts | 290° |
| 2026-05-04 06:26 | 50.95053 | -1.35885 | 36 ft | 10 kts | 273° |
| 2026-05-04 06:26 | 50.95007 | -1.35948 | 36 ft | 10 kts | 198° |
| 2026-05-04 06:26 | 50.94942 | -1.35984 | 36 ft | 10 kts | 199° |
| 2026-05-04 06:26 | 50.94896 | -1.36051 | 36 ft | 9 kts | 273° |
| 2026-05-04 06:27 | 50.94997 | -1.36240 | 36 ft | 3 kts | 19° |
| 2026-05-04 06:28 | 50.95000 | -1.36238 | 36 ft | 0 kts | 19° |